Flight Track Log - Related Links

Times and Time Zones

All times are in EDT time to prevent confusion due to time zone crossing. See the SWA472 flight status page for this flight to view local times or setup timezone preferences in your user account.

Time Position Orientation Groundspeed Altitude Reporting Facility
EDT Latitude Longitude Course Direction KTS MPH feet Rate Location/Type
Mon 10:13:22 AM 33.9470 -118.4310 261° West 163 188 800  Level FlightAware ADS-B
Mon 10:13:42 AM 33.9450 -118.4490 262° West 179 206 1,600 1,909 Climbing FlightAware ADS-B
Mon 10:14:06 AM 33.9420 -118.4760 262° West 228 262 2,200 1,814 Climbing FlightAware ADS-B
Mon 10:14:25 AM 33.9420 -118.5030 270° West 253 291 2,900 3,000 Climbing FlightAware ADS-B
Mon 10:14:46 AM 33.9410 -118.5310 268° West 256 295 4,200 3,400 Climbing FlightAware ADS-B
Mon 10:14:55 AM 33.9390 -118.5420 258° West 260 299 4,600 3,000 Climbing FlightAware ADS-B
Mon 10:15:06 AM 33.9310 -118.5570 237° Southwest 264 304 5,200 3,000 Climbing FlightAware ADS-B
Mon 10:15:15 AM 33.9230 -118.5640 216° Southwest 266 306 5,600 3,429 Climbing FlightAware ADS-B
Mon 10:15:34 AM 33.9030 -118.5800 214° Southwest 276 318 6,800 4,091 Climbing FlightAware ADS-B
Mon 10:15:59 AM 33.8770 -118.6010 214° Southwest 279 321 8,600 4,227 Climbing FlightAware ADS-B
Mon 10:16:18 AM 33.8560 -118.6180 214° Southwest 283 326 9,900 3,643 Climbing FlightAware ADS-B
Mon 10:16:55 AM 33.8150 -118.6510 214° Southwest 295 339 12,000 2,696 Climbing FlightAware ADS-B
Mon 10:17:27 AM 33.7770 -118.6780 211° Southwest 275 316 13,000 923 Climbing FlightAware ADS-B
Mon 10:18:00 AM 33.7370 -118.6870 191° South 272 313 13,000  Level FlightAware ADS-B
Mon 10:18:12 AM 33.7250 -118.6830 165° South 274 315 13,000  Level FlightAware ADS-B
Mon 10:18:23 AM 33.7110 -118.6720 147° Southeast 277 319 13,000  Level FlightAware ADS-B
Mon 10:18:59 AM 33.6740 -118.6360 141° Southeast 277 319 13,000  Level FlightAware ADS-B
Mon 10:19:27 AM 33.6490 -118.6040 133° Southeast 282 325 13,000  Level FlightAware ADS-B
Mon 10:19:39 AM 33.6440 -118.5870 109° East 287 330 13,000 250 Level FlightAware ADS-B
Mon 10:19:51 AM 33.6430 -118.5670 93° East 293 337 13,100 2,520 Climbing FlightAware ADS-B
Mon 10:20:29 AM 33.6440 -118.5040 89° East 299 344 15,100 3,205 Climbing FlightAware ADS-B
Mon 10:21:04 AM 33.6440 -118.4480 90° East 303 349 17,000 3,083 Climbing FlightAware ADS-B
Mon 10:21:41 AM 33.6440 -118.3820 90° East 318 366 18,800 2,270 Climbing FlightAware ADS-B
Mon 10:22:18 AM 33.6440 -118.3250 90° East 345 397 19,800 1,615 Climbing FlightAware ADS-B
Mon 10:22:59 AM 33.6440 -118.2320 90° East 392 451 20,900 2,160 Climbing FlightAware ADS-B
Mon 10:23:33 AM 33.6440 -118.1530 90° East 401 461 22,500 1,938 Climbing FlightAware ADS-B
Mon 10:24:04 AM 33.6440 -118.0860 90° East 405 466 23,000 1,075 Climbing FlightAware ADS-B
Mon 10:24:40 AM 33.6440 -118.0040 90° East 409 471 23,700 1,808 Climbing FlightAware ADS-B
Mon 10:25:17 AM 33.6440 -117.9180 90° East 420 483 25,200 2,314 Climbing FlightAware ADS-B
Mon 10:25:50 AM 33.6440 -117.8410 90° East 429 494 26,400 2,149 Climbing FlightAware ADS-B
Mon 10:26:24 AM 33.6430 -117.7590 91° East 438 504 27,600 1,973 Climbing FlightAware ADS-B
Mon 10:27:03 AM 33.6430 -117.6620 90° East 448 516 28,800 1,726 Climbing FlightAware ADS-B
Mon 10:27:37 AM 33.6430 -117.5760 90° East 456 525 29,700 1,600 Climbing FlightAware ADS-B
Mon 10:28:18 AM 33.6420 -117.4780 91° East 463 533 30,800 1,615 Climbing FlightAware ADS-B
Mon 10:28:55 AM 33.6420 -117.3770 90° East 470 541 31,800 1,562 Climbing FlightAware ADS-B
Mon 10:29:31 AM 33.6410 -117.2830 91° East 475 547 32,700 1,727 Climbing FlightAware ADS-B
Mon 10:30:01 AM 33.6410 -117.2040 90° East 472 543 33,700 1,701 Climbing FlightAware ADS-B
Mon 10:30:38 AM 33.6450 -117.1080 87° East 482 555 34,600 1,217 Climbing FlightAware ADS-B
Mon 10:31:10 AM 33.6560 -117.0240 81° East 491 565 35,100 1,268 Climbing FlightAware ADS-B
Mon 10:31:49 AM 33.6710 -116.9180 80° East 492 566 36,100 1,500 Climbing FlightAware ADS-B
Mon 10:32:22 AM 33.6820 -116.8300 81° East 491 565 36,900 1,371 Climbing FlightAware ADS-B
Mon 10:32:59 AM 33.6950 -116.7310 81° East 490 564 37,700 1,397 Climbing FlightAware ADS-B
Mon 10:33:35 AM 33.7070 -116.6340 82° East 488 562 38,600 1,164 Climbing FlightAware ADS-B
Mon 10:34:06 AM 33.7180 -116.5500 81° East 489 563 39,000 353 Climbing FlightAware ADS-B
Mon 10:34:43 AM 33.7300 -116.4530 82° East 488 562 39,000  Level FlightAware ADS-B
Mon 10:35:17 AM 33.7400 -116.3640 82° East 489 563 39,000  Level FlightAware ADS-B
Mon 10:35:54 AM 33.7530 -116.2600 81° East 490 564 39,000  Level FlightAware ADS-B
Mon 10:36:31 AM 33.7650 -116.1670 81° East 491 565 39,000  Level FlightAware ADS-B
Mon 10:37:04 AM 33.7760 -116.0750 82° East 491 565 39,000  Level FlightAware ADS-B
Mon 10:37:35 AM 33.7860 -115.9930 82° East 489 563 39,000  Level FlightAware ADS-B
Mon 10:38:10 AM 33.7980 -115.8980 81° East 490 564 39,000  Level FlightAware ADS-B
Mon 10:38:46 AM 33.8090 -115.8070 82° East 488 562 39,000  Level FlightAware ADS-B
Mon 10:39:20 AM 33.8200 -115.7110 82° East 489 563 39,000  Level FlightAware ADS-B
Mon 10:40:00 AM 33.8330 -115.6040 82° East 486 559 39,000  Level FlightAware ADS-B
Mon 10:40:30 AM 33.8430 -115.5220 82° East 485 558 39,000  Level FlightAware ADS-B
Mon 10:41:10 AM 33.8550 -115.4170 82° East 484 557 39,000  Level FlightAware ADS-B
Mon 10:41:40 AM 33.8640 -115.3360 82° East 483 556 39,000  Level FlightAware ADS-B
Mon 10:42:16 AM 33.8750 -115.2430 82° East 483 556 39,000  Level FlightAware ADS-B
Mon 10:42:55 AM 33.8870 -115.1370 82° East 482 555 39,000  Level FlightAware ADS-B
Mon 10:43:26 AM 33.8970 -115.0550 82° East 481 554 39,000  Level FlightAware ADS-B
Mon 10:44:05 AM 33.9080 -114.9520 83° East 480 552 39,000  Level FlightAware ADS-B
Mon 10:44:35 AM 33.9180 -114.8710 82° East 479 551 39,000  Level FlightAware ADS-B
Mon 10:45:10 AM 33.9280 -114.7800 82° East 478 550 39,000  Level FlightAware ADS-B
Mon 10:45:46 AM 33.9380 -114.6860 83° East 478 550 39,000  Level FlightAware ADS-B
Mon 10:46:22 AM 33.9480 -114.5960 82° East 477 549 39,000  Level FlightAware ADS-B
Mon 10:47:00 AM 33.9600 -114.4910 82° East 479 551 39,000  Level FlightAware ADS-B
Mon 10:47:30 AM 33.9680 -114.4120 83° East 479 551 39,000  Level FlightAware ADS-B
Mon 10:48:00 AM 33.9770 -114.3330 82° East 480 552 39,000  Level FlightAware ADS-B
Mon 10:48:35 AM 33.9870 -114.2410 83° East 480 552 39,000  Level FlightAware ADS-B
Mon 10:49:10 AM 33.9970 -114.1460 83° East 481 554 39,000  Level FlightAware ADS-B
Mon 10:49:40 AM 34.0050 -114.0710 83° East 481 554 39,000  Level FlightAware ADS-B
Mon 10:50:22 AM 34.0160 -113.9630 83° East 482 555 39,000  Level FlightAware ADS-B
Mon 10:50:55 AM 34.0260 -113.8670 83° East 482 555 39,000  Level FlightAware ADS-B
Mon 10:51:25 AM 34.0340 -113.7900 83° East 482 555 39,000  Level FlightAware ADS-B
Mon 10:52:05 AM 34.0450 -113.6840 83° East 482 555 39,000  Level FlightAware ADS-B
Mon 10:52:40 AM 34.0550 -113.5870 83° East 482 555 39,000  Level FlightAware ADS-B
Mon 10:53:15 AM 34.0640 -113.4940 83° East 480 552 39,000  Level FlightAware ADS-B
Mon 10:53:53 AM 34.0740 -113.3990 83° East 479 551 39,000  Level FlightAware ADS-B
Mon 10:54:25 AM 34.0830 -113.3090 83° East 478 550 39,000  Level FlightAware ADS-B
Mon 10:55:00 AM 34.0920 -113.2140 83° East 477 549 39,000  Level FlightAware ADS-B
Mon 10:55:35 AM 34.1010 -113.1240 83° East 476 548 39,000  Level FlightAware ADS-B
Mon 10:56:10 AM 34.1100 -113.0320 83° East 475 547 39,000  Level FlightAware ADS-B
Mon 10:56:46 AM 34.1190 -112.9370 83° East 475 547 39,000  Level FlightAware ADS-B
Mon 10:57:15 AM 34.1270 -112.8590 83° East 474 545 39,000  Level FlightAware ADS-B
Mon 10:57:55 AM 34.1360 -112.7540 84° East 473 544 39,000  Level FlightAware ADS-B
Mon 10:58:30 AM 34.1450 -112.6660 83° East 474 545 39,000  Level FlightAware ADS-B
Mon 10:59:05 AM 34.1530 -112.5730 84° East 474 545 39,000  Level FlightAware ADS-B
Mon 10:59:40 AM 34.1620 -112.4860 83° East 475 547 39,000  Level FlightAware ADS-B
Mon 11:00:15 AM 34.1700 -112.3910 84° East 474 545 39,000  Level FlightAware ADS-B
Mon 11:00:54 AM 34.1800 -112.2840 84° East 475 547 39,000  Level FlightAware ADS-B
Mon 11:01:26 AM 34.1880 -112.2000 83° East 475 547 39,000  Level FlightAware ADS-B
Mon 11:02:02 AM 34.1960 -112.1020 84° East 477 549 39,000  Level FlightAware ADS-B
Mon 11:02:38 AM 34.2040 -112.0070 84° East 477 549 39,000  Level FlightAware ADS-B
Mon 11:03:11 AM 34.2120 -111.9200 84° East 478 550 39,000  Level FlightAware ADS-B
Mon 11:03:46 AM 34.2200 -111.8270 84° East 478 550 39,000  Level FlightAware ADS-B
Mon 11:04:17 AM 34.2280 -111.7450 83° East 478 550 39,000  Level FlightAware ADS-B
Mon 11:04:57 AM 34.2360 -111.6430 85° East 478 550 39,000  Level FlightAware ADS-B
Mon 11:05:32 AM 34.2450 -111.5450 84° East 478 550 39,000  Level FlightAware ADS-B
Mon 11:06:05 AM 34.2520 -111.4630 84° East 478 550 39,000  Level FlightAware ADS-B
Mon 11:06:39 AM 34.2590 -111.3730 85° East 479 551 39,000  Level FlightAware ADS-B
Mon 11:07:15 AM 34.2680 -111.2700 84° East 479 551 39,000  Level FlightAware ADS-B
Mon 11:07:50 AM 34.2750 -111.1800 85° East 479 551 39,000  Level FlightAware ADS-B
Mon 11:08:27 AM 34.2830 -111.0860 84° East 478 550 39,000  Level FlightAware ADS-B
Mon 11:09:03 AM 34.2910 -110.9850 84° East 478 550 39,000  Level FlightAware ADS-B
Mon 11:09:39 AM 34.2980 -110.8880 85° East 478 550 39,000  Level FlightAware ADS-B
Mon 11:10:11 AM 34.3050 -110.8020 84° East 477 549 39,000  Level FlightAware ADS-B
Mon 11:10:47 AM 34.3130 -110.7070 84° East 477 549 39,000  Level FlightAware ADS-B
Mon 11:11:07 AM 34.3160 -110.6660 85° East 476 548 39,000  Level FlightAware ADS-B
Mon 11:12:03 AM 34.3280 -110.5070 85° East 475 547 39,000  Level FlightAware ADS-B
Mon 11:12:38 AM 34.3350 -110.4180 85° East 473 544 39,000  Level FlightAware ADS-B
Mon 11:13:13 AM 34.3420 -110.3260 85° East 473 544 39,000  Level FlightAware ADS-B
Mon 11:13:50 AM 34.3490 -110.2270 85° East 472 543 39,000  Level FlightAware ADS-B
Mon 11:14:25 AM 34.3560 -110.1340 85° East 470 541 39,000  Level FlightAware ADS-B
Mon 11:15:01 AM 34.3630 -110.0390 85° East 469 540 39,000  Level FlightAware ADS-B
Mon 11:15:39 AM 34.3690 -109.9530 85° East 469 540 39,000  Level FlightAware ADS-B
Mon 11:16:15 AM 34.3750 -109.8730 85° East 469 540 39,000  Level FlightAware ADS-B
Mon 11:16:50 AM 34.3830 -109.7610 85° East 466 536 39,000  Level FlightAware ADS-B
Mon 11:17:25 AM 34.3890 -109.6640 86° East 465 535 39,000  Level FlightAware ADS-B
Mon 11:17:59 AM 34.3950 -109.5770 85° East 465 535 39,000  Level FlightAware ADS-B
Mon 11:18:33 AM 34.4010 -109.4890 85° East 466 536 39,000  Level FlightAware ADS-B
Mon 11:19:11 AM 34.4070 -109.3950 86° East 466 536 39,000  Level FlightAware ADS-B
Mon 11:19:46 AM 34.4130 -109.3010 86° East 466 536 39,000 -592 Level FlightAware ADS-B
Mon 11:20:22 AM 34.4200 -109.2050 85° East 468 539 38,300 -684 Descending FlightAware ADS-B
Mon 11:21:05 AM 34.4270 -109.1030 85° East 470 541 38,100 -154 Descending FlightAware ADS-B
Mon 11:21:40 AM 34.4320 -109.0250 86° East 470 541 38,100  Level FlightAware ADS-B
Mon 11:22:16 AM 34.4380 -108.9450 85° East 470 541 38,100  Level FlightAware ADS-B
Mon 11:22:52 AM 34.4440 -108.8650 85° East 470 541 38,100  Level FlightAware ADS-B
Mon 11:23:28 AM 34.4500 -108.7840 85° East 470 541 38,100  Level FlightAware ADS-B
Mon 11:24:05 AM 34.4560 -108.7020 85° East 470 541 38,100  Level FlightAware ADS-B
Mon 11:24:41 AM 34.4620 -108.6210 85° East 470 541 38,100  Level FlightAware ADS-B
Mon 11:25:16 AM 34.4670 -108.5430 86° East 470 541 38,100  Level FlightAware ADS-B
Mon 11:25:53 AM 34.4730 -108.4600 85° East 470 541 38,100  Level FlightAware ADS-B
Mon 11:26:29 AM 34.4790 -108.3800 85° East 470 541 38,100  Level FlightAware ADS-B
Mon 11:27:06 AM 34.4850 -108.2970 85° East 470 541 38,100  Level FlightAware ADS-B
Mon 11:27:42 AM 34.4910 -108.2170 85° East 470 541 38,100  Level FlightAware ADS-B
Mon 11:28:16 AM 34.4960 -108.1410 85° East 470 541 38,100  Level FlightAware ADS-B
Mon 11:28:53 AM 34.5020 -108.0580 85° East 470 541 38,100  Level FlightAware ADS-B
Mon 11:29:29 AM 34.5080 -107.9780 85° East 470 541 38,100  Level FlightAware ADS-B
Mon 11:30:06 AM 34.5140 -107.8950 85° East 470 541 38,100 -5,250 Level FlightAware ADS-B
Mon 11:33:45 AM 34.8290 -107.3270 56° Northeast 354 407 15,700 -5,391 Descending FlightAware ADS-B
Mon 11:34:22 AM 34.8550 -107.2650 63° Northeast 331 381 15,100 -486 Descending FlightAware ADS-B
Mon 11:34:59 AM 34.8770 -107.2130 63° Northeast 331 381 15,100 -1,500 Level FlightAware ADS-B
Mon 11:35:22 AM 34.8940 -107.1620 68° East 319 367 13,600 -1,479 Descending FlightAware ADS-B
Mon 11:36:12 AM 34.9040 -107.0860 81° East 296 341 13,300 -2,143 Descending FlightAware ADS-B
Mon 11:36:46 AM 34.9120 -107.0230 81° East 287 330 10,600 -2,471 Descending FlightAware ADS-B
Mon 11:37:20 AM 34.9180 -106.9770 81° East 284 327 10,500 -1,594 Descending FlightAware ADS-B
Mon 11:37:50 AM 34.9240 -106.9260 82° East 252 290 8,900 -2,250 Descending FlightAware ADS-B
Mon 11:38:16 AM 34.9280 -106.8910 82° East 238 274 8,400 -636 Descending FlightAware ADS-B
Mon 11:38:56 AM 34.9330 -106.8430 83° East 238 274 8,200 -188 Descending FlightAware ADS-B
Mon 11:39:20 AM 34.9360 -106.8160 82° East 238 274 8,200  Level FlightAware ADS-B
Mon 11:39:44 AM 34.9390 -106.7890 82° East 238 274 8,200  Level FlightAware ADS-B
Mon 11:40:08 AM 34.9430 -106.7620 80° East 238 274 8,200 -1,286 Level FlightAware ADS-B
Mon 11:40:40 AM 34.9520 -106.7170 76° East 184 212 7,000 -1,114 Descending FlightAware ADS-B
Mon 11:41:18 AM 34.9664 -106.6975 76° East 185 213 6,900 -526 Descending Albuquerque Center
Mon 11:41:37 AM 34.9803 -106.6811 44° Northeast 156 180 6,500 -968 Descending Albuquerque Center
Mon 11:42:20 AM 35.0033 -106.6544 43° Northeast 147 169 5,900 -629 Descending Albuquerque Center
Mon 11:43:22 AM 35.0261 -106.6247 47° Northeast 151 174 5,400 -484 Descending Albuquerque Center
Mon 11:45:00 AM 35.0333 -106.6000 39° Northeast  Level FlightAware Approximate

Login

Don't have an account? Register now (free) for customized features, flight alerts, and more!